sensor_id;sensor_type;location;lat;lon;timestamp;P1;durP1;ratioP1;P2;durP2;ratioP2
13698;SDS011;6921;53.642;9.956;2022-09-09T00:00:00;59.88;;;27.70;;
13698;SDS011;6921;53.642;9.956;2022-09-09T00:02:08;55.72;;;27.08;;
13698;SDS011;6921;53.642;9.956;2022-09-09T00:04:23;55.65;;;27.88;;
13698;SDS011;6921;53.642;9.956;2022-09-09T00:06:31;56.55;;;26.70;;
13698;SDS011;6921;53.642;9.956;2022-09-09T00:08:39;61.95;;;27.55;;
13698;SDS011;6921;53.642;9.956;2022-09-09T00:10:54;53.97;;;27.10;;
13698;SDS011;6921;53.642;9.956;2022-09-09T00:13:02;56.92;;;26.23;;
13698;SDS011;6921;53.642;9.956;2022-09-09T00:15:13;54.28;;;25.42;;
13698;SDS011;6921;53.642;9.956;2022-09-09T00:17:24;56.42;;;26.73;;
13698;SDS011;6921;53.642;9.956;2022-09-09T00:19:36;58.40;;;27.50;;
13698;SDS011;6921;53.642;9.956;2022-09-09T00:21:46;56.50;;;27.85;;
13698;SDS011;6921;53.642;9.956;2022-09-09T00:23:55;61.38;;;27.98;;
13698;SDS011;6921;53.642;9.956;2022-09-09T00:26:01;58.50;;;28.60;;
13698;SDS011;6921;53.642;9.956;2022-09-09T00:28:08;55.05;;;27.20;;
13698;SDS011;6921;53.642;9.956;2022-09-09T00:30:19;66.45;;;28.08;;
13698;SDS011;6921;53.642;9.956;2022-09-09T00:32:24;81.15;;;30.85;;
13698;SDS011;6921;53.642;9.956;2022-09-09T00:34:31;69.88;;;30.55;;
13698;SDS011;6921;53.642;9.956;2022-09-09T00:36:35;64.45;;;29.55;;
13698;SDS011;6921;53.642;9.956;2022-09-09T00:38:41;64.45;;;29.80;;
13698;SDS011;6921;53.642;9.956;2022-09-09T00:40:48;59.55;;;28.00;;
13698;SDS011;6921;53.642;9.956;2022-09-09T00:42:57;56.50;;;28.30;;
13698;SDS011;6921;53.642;9.956;2022-09-09T00:45:17;58.17;;;27.13;;
13698;SDS011;6921;53.642;9.956;2022-09-09T00:47:39;57.90;;;28.98;;
13698;SDS011;6921;53.642;9.956;2022-09-09T00:49:48;66.72;;;28.63;;
13698;SDS011;6921;53.642;9.956;2022-09-09T00:52:03;65.57;;;28.95;;
13698;SDS011;6921;53.642;9.956;2022-09-09T00:56:47;64.53;;;28.98;;
13698;SDS011;6921;53.642;9.956;2022-09-09T00:58:59;70.30;;;28.70;;
13698;SDS011;6921;53.642;9.956;2022-09-09T01:01:09;68.35;;;29.90;;
13698;SDS011;6921;53.642;9.956;2022-09-09T01:03:18;73.90;;;31.08;;
13698;SDS011;6921;53.642;9.956;2022-09-09T01:05:27;70.03;;;30.90;;
13698;SDS011;6921;53.642;9.956;2022-09-09T01:07:37;69.70;;;31.33;;
13698;SDS011;6921;53.642;9.956;2022-09-09T01:09:45;83.57;;;33.33;;
13698;SDS011;6921;53.642;9.956;2022-09-09T01:11:59;91.63;;;33.55;;
13698;SDS011;6921;53.642;9.956;2022-09-09T01:14:13;83.53;;;33.03;;
13698;SDS011;6921;53.642;9.956;2022-09-09T01:16:24;89.05;;;34.13;;
13698;SDS011;6921;53.642;9.956;2022-09-09T01:18:31;82.10;;;32.30;;
13698;SDS011;6921;53.642;9.956;2022-09-09T01:20:37;80.40;;;33.15;;
13698;SDS011;6921;53.642;9.956;2022-09-09T01:22:49;87.47;;;33.45;;
13698;SDS011;6921;53.642;9.956;2022-09-09T01:25:11;82.75;;;31.83;;
13698;SDS011;6921;53.642;9.956;2022-09-09T01:27:30;80.65;;;32.50;;
13698;SDS011;6921;53.642;9.956;2022-09-09T01:29:33;84.05;;;32.25;;
13698;SDS011;6921;53.642;9.956;2022-09-09T01:31:38;76.40;;;31.15;;
13698;SDS011;6921;53.642;9.956;2022-09-09T01:33:43;76.57;;;31.55;;
13698;SDS011;6921;53.642;9.956;2022-09-09T01:35:47;77.82;;;31.30;;
13698;SDS011;6921;53.642;9.956;2022-09-09T01:37:55;77.57;;;30.98;;
13698;SDS011;6921;53.642;9.956;2022-09-09T01:39:58;80.78;;;31.98;;
13698;SDS011;6921;53.642;9.956;2022-09-09T01:42:02;71.75;;;29.75;;
13698;SDS011;6921;53.642;9.956;2022-09-09T01:44:08;81.30;;;32.17;;
13698;SDS011;6921;53.642;9.956;2022-09-09T01:46:11;73.13;;;30.65;;
13698;SDS011;6921;53.642;9.956;2022-09-09T01:48:15;81.72;;;31.77;;
13698;SDS011;6921;53.642;9.956;2022-09-09T01:50:18;77.32;;;30.42;;
13698;SDS011;6921;53.642;9.956;2022-09-09T01:52:21;81.68;;;30.15;;
13698;SDS011;6921;53.642;9.956;2022-09-09T01:54:25;72.75;;;29.45;;
13698;SDS011;6921;53.642;9.956;2022-09-09T01:56:35;67.25;;;28.83;;
13698;SDS011;6921;53.642;9.956;2022-09-09T01:58:46;68.35;;;30.35;;
13698;SDS011;6921;53.642;9.956;2022-09-09T02:00:59;68.13;;;27.33;;
13698;SDS011;6921;53.642;9.956;2022-09-09T02:03:09;73.65;;;30.98;;
13698;SDS011;6921;53.642;9.956;2022-09-09T02:05:24;64.88;;;28.33;;
13698;SDS011;6921;53.642;9.956;2022-09-09T02:07:38;64.47;;;27.98;;
13698;SDS011;6921;53.642;9.956;2022-09-09T02:09:42;64.82;;;27.58;;
13698;SDS011;6921;53.642;9.956;2022-09-09T02:11:49;71.63;;;28.70;;
13698;SDS011;6921;53.642;9.956;2022-09-09T02:13:57;61.10;;;27.73;;
13698;SDS011;6921;53.642;9.956;2022-09-09T02:16:06;68.78;;;28.38;;
13698;SDS011;6921;53.642;9.956;2022-09-09T02:18:10;64.55;;;28.58;;
13698;SDS011;6921;53.642;9.956;2022-09-09T02:20:16;58.33;;;26.90;;
13698;SDS011;6921;53.642;9.956;2022-09-09T02:22:22;70.45;;;27.92;;
13698;SDS011;6921;53.642;9.956;2022-09-09T02:24:28;60.75;;;26.83;;
13698;SDS011;6921;53.642;9.956;2022-09-09T02:26:34;69.30;;;28.88;;
13698;SDS011;6921;53.642;9.956;2022-09-09T02:28:41;68.82;;;29.48;;
13698;SDS011;6921;53.642;9.956;2022-09-09T02:30:44;62.55;;;27.05;;
13698;SDS011;6921;53.642;9.956;2022-09-09T02:32:50;64.82;;;27.08;;
13698;SDS011;6921;53.642;9.956;2022-09-09T02:34:59;65.25;;;27.45;;
13698;SDS011;6921;53.642;9.956;2022-09-09T02:37:05;63.60;;;26.88;;
13698;SDS011;6921;53.642;9.956;2022-09-09T02:39:10;63.75;;;27.85;;
13698;SDS011;6921;53.642;9.956;2022-09-09T02:41:13;59.83;;;26.42;;
13698;SDS011;6921;53.642;9.956;2022-09-09T02:43:17;59.13;;;26.80;;
13698;SDS011;6921;53.642;9.956;2022-09-09T02:45:22;55.30;;;25.52;;
13698;SDS011;6921;53.642;9.956;2022-09-09T02:47:30;54.03;;;24.38;;
13698;SDS011;6921;53.642;9.956;2022-09-09T02:49:43;57.00;;;26.23;;
13698;SDS011;6921;53.642;9.956;2022-09-09T02:51:59;66.38;;;27.20;;
13698;SDS011;6921;53.642;9.956;2022-09-09T02:54:06;62.45;;;25.35;;
13698;SDS011;6921;53.642;9.956;2022-09-09T02:56:14;56.42;;;25.45;;
13698;SDS011;6921;53.642;9.956;2022-09-09T02:58:19;54.50;;;26.80;;
13698;SDS011;6921;53.642;9.956;2022-09-09T03:00:23;56.22;;;26.05;;
13698;SDS011;6921;53.642;9.956;2022-09-09T03:02:26;54.42;;;24.48;;
13698;SDS011;6921;53.642;9.956;2022-09-09T03:04:30;58.58;;;25.70;;
13698;SDS011;6921;53.642;9.956;2022-09-09T03:06:34;53.92;;;24.15;;
13698;SDS011;6921;53.642;9.956;2022-09-09T03:08:37;48.88;;;24.40;;
13698;SDS011;6921;53.642;9.956;2022-09-09T03:10:43;56.80;;;25.95;;
13698;SDS011;6921;53.642;9.956;2022-09-09T03:12:46;51.83;;;24.50;;
13698;SDS011;6921;53.642;9.956;2022-09-09T03:14:49;54.38;;;25.17;;
13698;SDS011;6921;53.642;9.956;2022-09-09T03:16:53;50.00;;;23.90;;
13698;SDS011;6921;53.642;9.956;2022-09-09T03:18:57;51.75;;;24.63;;
13698;SDS011;6921;53.642;9.956;2022-09-09T03:21:00;53.97;;;25.20;;
13698;SDS011;6921;53.642;9.956;2022-09-09T03:23:05;52.05;;;23.13;;
13698;SDS011;6921;53.642;9.956;2022-09-09T03:25:11;49.80;;;23.60;;
13698;SDS011;6921;53.642;9.956;2022-09-09T03:27:14;50.97;;;24.02;;
13698;SDS011;6921;53.642;9.956;2022-09-09T03:29:18;49.72;;;24.38;;
13698;SDS011;6921;53.642;9.956;2022-09-09T03:31:22;50.55;;;24.33;;
13698;SDS011;6921;53.642;9.956;2022-09-09T03:33:26;50.10;;;24.48;;
13698;SDS011;6921;53.642;9.956;2022-09-09T03:35:30;51.30;;;23.65;;
13698;SDS011;6921;53.642;9.956;2022-09-09T03:37:33;49.28;;;23.27;;
13698;SDS011;6921;53.642;9.956;2022-09-09T03:39:38;46.72;;;22.98;;
13698;SDS011;6921;53.642;9.956;2022-09-09T03:41:41;46.60;;;22.63;;
13698;SDS011;6921;53.642;9.956;2022-09-09T03:43:46;43.97;;;22.40;;
13698;SDS011;6921;53.642;9.956;2022-09-09T03:45:49;45.13;;;22.15;;
13698;SDS011;6921;53.642;9.956;2022-09-09T03:47:53;44.28;;;21.45;;
13698;SDS011;6921;53.642;9.956;2022-09-09T03:49:56;43.80;;;22.00;;
13698;SDS011;6921;53.642;9.956;2022-09-09T03:51:59;39.25;;;21.27;;
13698;SDS011;6921;53.642;9.956;2022-09-09T03:54:02;43.92;;;22.10;;
13698;SDS011;6921;53.642;9.956;2022-09-09T03:56:07;40.53;;;21.60;;
13698;SDS011;6921;53.642;9.956;2022-09-09T03:58:11;41.92;;;21.60;;
13698;SDS011;6921;53.642;9.956;2022-09-09T04:00:14;39.85;;;21.25;;
13698;SDS011;6921;53.642;9.956;2022-09-09T04:02:17;39.22;;;20.80;;
13698;SDS011;6921;53.642;9.956;2022-09-09T04:04:20;35.75;;;19.73;;
13698;SDS011;6921;53.642;9.956;2022-09-09T04:06:24;39.70;;;20.42;;
13698;SDS011;6921;53.642;9.956;2022-09-09T04:08:27;41.33;;;20.27;;
13698;SDS011;6921;53.642;9.956;2022-09-09T04:10:32;41.45;;;20.00;;
13698;SDS011;6921;53.642;9.956;2022-09-09T04:12:38;40.40;;;20.67;;
13698;SDS011;6921;53.642;9.956;2022-09-09T04:14:41;37.75;;;19.77;;
13698;SDS011;6921;53.642;9.956;2022-09-09T04:16:44;36.47;;;19.52;;
13698;SDS011;6921;53.642;9.956;2022-09-09T04:18:48;40.78;;;19.65;;
13698;SDS011;6921;53.642;9.956;2022-09-09T04:20:51;36.70;;;20.10;;
13698;SDS011;6921;53.642;9.956;2022-09-09T04:22:55;39.97;;;20.52;;
13698;SDS011;6921;53.642;9.956;2022-09-09T04:24:58;39.60;;;21.02;;
13698;SDS011;6921;53.642;9.956;2022-09-09T04:27:02;39.42;;;21.63;;
13698;SDS011;6921;53.642;9.956;2022-09-09T04:29:06;43.38;;;20.70;;
13698;SDS011;6921;53.642;9.956;2022-09-09T04:31:10;41.80;;;21.30;;
13698;SDS011;6921;53.642;9.956;2022-09-09T04:33:16;38.00;;;20.60;;
13698;SDS011;6921;53.642;9.956;2022-09-09T04:35:20;39.95;;;20.80;;
13698;SDS011;6921;53.642;9.956;2022-09-09T04:37:23;39.38;;;21.80;;
13698;SDS011;6921;53.642;9.956;2022-09-09T04:39:29;45.78;;;22.48;;
13698;SDS011;6921;53.642;9.956;2022-09-09T04:41:32;40.33;;;21.90;;
13698;SDS011;6921;53.642;9.956;2022-09-09T04:43:38;38.78;;;20.42;;
13698;SDS011;6921;53.642;9.956;2022-09-09T04:45:43;37.55;;;20.63;;
13698;SDS011;6921;53.642;9.956;2022-09-09T04:47:48;41.58;;;22.13;;
13698;SDS011;6921;53.642;9.956;2022-09-09T04:49:52;40.70;;;20.73;;
13698;SDS011;6921;53.642;9.956;2022-09-09T04:51:55;43.15;;;21.75;;
13698;SDS011;6921;53.642;9.956;2022-09-09T04:53:58;41.53;;;21.60;;
13698;SDS011;6921;53.642;9.956;2022-09-09T04:56:02;40.17;;;22.10;;
13698;SDS011;6921;53.642;9.956;2022-09-09T04:58:07;40.85;;;20.67;;
13698;SDS011;6921;53.642;9.956;2022-09-09T05:00:11;40.88;;;21.88;;
13698;SDS011;6921;53.642;9.956;2022-09-09T05:02:16;42.55;;;21.77;;
13698;SDS011;6921;53.642;9.956;2022-09-09T05:04:19;41.85;;;21.95;;
13698;SDS011;6921;53.642;9.956;2022-09-09T05:06:22;43.50;;;22.13;;
13698;SDS011;6921;53.642;9.956;2022-09-09T05:08:25;35.50;;;19.83;;
13698;SDS011;6921;53.642;9.956;2022-09-09T05:10:29;38.05;;;21.23;;
13698;SDS011;6921;53.642;9.956;2022-09-09T05:12:32;43.85;;;21.23;;
13698;SDS011;6921;53.642;9.956;2022-09-09T05:14:35;37.28;;;20.27;;
13698;SDS011;6921;53.642;9.956;2022-09-09T05:16:39;36.55;;;20.50;;
13698;SDS011;6921;53.642;9.956;2022-09-09T05:18:43;38.13;;;20.42;;
13698;SDS011;6921;53.642;9.956;2022-09-09T05:20:47;33.05;;;19.60;;
13698;SDS011;6921;53.642;9.956;2022-09-09T05:22:52;33.03;;;18.92;;
13698;SDS011;6921;53.642;9.956;2022-09-09T05:24:55;32.55;;;17.60;;
13698;SDS011;6921;53.642;9.956;2022-09-09T05:26:59;30.75;;;18.27;;
13698;SDS011;6921;53.642;9.956;2022-09-09T05:29:03;27.13;;;16.83;;
13698;SDS011;6921;53.642;9.956;2022-09-09T05:31:07;31.90;;;18.05;;
13698;SDS011;6921;53.642;9.956;2022-09-09T05:33:12;28.67;;;16.92;;
13698;SDS011;6921;53.642;9.956;2022-09-09T05:35:17;27.65;;;16.85;;
13698;SDS011;6921;53.642;9.956;2022-09-09T05:37:20;28.38;;;17.00;;
13698;SDS011;6921;53.642;9.956;2022-09-09T05:39:24;29.42;;;17.05;;
13698;SDS011;6921;53.642;9.956;2022-09-09T05:41:27;27.73;;;15.98;;
13698;SDS011;6921;53.642;9.956;2022-09-09T05:43:32;23.52;;;15.93;;
13698;SDS011;6921;53.642;9.956;2022-09-09T05:45:36;29.27;;;16.10;;
13698;SDS011;6921;53.642;9.956;2022-09-09T05:47:39;26.92;;;16.73;;
13698;SDS011;6921;53.642;9.956;2022-09-09T05:49:42;27.83;;;16.20;;
13698;SDS011;6921;53.642;9.956;2022-09-09T05:51:47;25.23;;;15.48;;
13698;SDS011;6921;53.642;9.956;2022-09-09T05:53:51;25.20;;;15.98;;
13698;SDS011;6921;53.642;9.956;2022-09-09T05:55:59;26.10;;;15.80;;
13698;SDS011;6921;53.642;9.956;2022-09-09T05:58:04;22.95;;;14.75;;
13698;SDS011;6921;53.642;9.956;2022-09-09T06:00:08;24.67;;;16.10;;
13698;SDS011;6921;53.642;9.956;2022-09-09T06:02:12;23.40;;;15.15;;
13698;SDS011;6921;53.642;9.956;2022-09-09T06:04:15;23.08;;;14.77;;
13698;SDS011;6921;53.642;9.956;2022-09-09T06:06:19;26.42;;;15.63;;
13698;SDS011;6921;53.642;9.956;2022-09-09T06:08:25;23.42;;;15.38;;
13698;SDS011;6921;53.642;9.956;2022-09-09T06:10:28;21.85;;;14.68;;
13698;SDS011;6921;53.642;9.956;2022-09-09T06:12:31;23.30;;;15.85;;
13698;SDS011;6921;53.642;9.956;2022-09-09T06:14:35;22.30;;;14.35;;
13698;SDS011;6921;53.642;9.956;2022-09-09T06:16:40;23.17;;;15.85;;
13698;SDS011;6921;53.642;9.956;2022-09-09T06:18:45;25.65;;;15.48;;
13698;SDS011;6921;53.642;9.956;2022-09-09T06:20:53;20.85;;;14.55;;
13698;SDS011;6921;53.642;9.956;2022-09-09T06:22:57;22.95;;;14.55;;
13698;SDS011;6921;53.642;9.956;2022-09-09T06:25:01;20.83;;;14.40;;
13698;SDS011;6921;53.642;9.956;2022-09-09T06:27:05;23.73;;;14.43;;
13698;SDS011;6921;53.642;9.956;2022-09-09T06:29:08;20.73;;;14.57;;
13698;SDS011;6921;53.642;9.956;2022-09-09T06:31:12;22.65;;;15.32;;
13698;SDS011;6921;53.642;9.956;2022-09-09T06:33:18;20.88;;;14.70;;
13698;SDS011;6921;53.642;9.956;2022-09-09T06:35:21;21.45;;;13.90;;
13698;SDS011;6921;53.642;9.956;2022-09-09T06:37:25;19.30;;;13.93;;
13698;SDS011;6921;53.642;9.956;2022-09-09T06:39:28;19.52;;;13.60;;
13698;SDS011;6921;53.642;9.956;2022-09-09T06:41:33;19.42;;;12.90;;
13698;SDS011;6921;53.642;9.956;2022-09-09T06:43:36;20.02;;;13.85;;
13698;SDS011;6921;53.642;9.956;2022-09-09T06:45:40;19.90;;;13.60;;
13698;SDS011;6921;53.642;9.956;2022-09-09T06:47:43;21.15;;;12.98;;
13698;SDS011;6921;53.642;9.956;2022-09-09T06:49:46;21.02;;;12.93;;
13698;SDS011;6921;53.642;9.956;2022-09-09T06:51:49;18.42;;;12.85;;
13698;SDS011;6921;53.642;9.956;2022-09-09T06:53:54;19.65;;;12.15;;
13698;SDS011;6921;53.642;9.956;2022-09-09T06:55:58;17.52;;;12.18;;
13698;SDS011;6921;53.642;9.956;2022-09-09T06:58:03;19.00;;;12.02;;
13698;SDS011;6921;53.642;9.956;2022-09-09T07:00:11;20.42;;;12.30;;
13698;SDS011;6921;53.642;9.956;2022-09-09T07:02:15;18.10;;;13.00;;
13698;SDS011;6921;53.642;9.956;2022-09-09T07:04:18;18.10;;;13.25;;
13698;SDS011;6921;53.642;9.956;2022-09-09T07:06:22;21.35;;;12.50;;
13698;SDS011;6921;53.642;9.956;2022-09-09T07:08:26;15.93;;;12.25;;
13698;SDS011;6921;53.642;9.956;2022-09-09T07:10:30;17.92;;;12.48;;
13698;SDS011;6921;53.642;9.956;2022-09-09T07:12:33;19.23;;;12.05;;
13698;SDS011;6921;53.642;9.956;2022-09-09T07:14:37;16.45;;;11.45;;
13698;SDS011;6921;53.642;9.956;2022-09-09T07:16:41;15.82;;;11.68;;
13698;SDS011;6921;53.642;9.956;2022-09-09T07:18:44;16.33;;;11.65;;
13698;SDS011;6921;53.642;9.956;2022-09-09T07:20:54;17.27;;;12.32;;
13698;SDS011;6921;53.642;9.956;2022-09-09T07:22:58;13.75;;;9.48;;
13698;SDS011;6921;53.642;9.956;2022-09-09T07:25:01;14.50;;;10.48;;
13698;SDS011;6921;53.642;9.956;2022-09-09T07:27:04;13.85;;;10.15;;
13698;SDS011;6921;53.642;9.956;2022-09-09T07:29:08;13.43;;;9.00;;
13698;SDS011;6921;53.642;9.956;2022-09-09T07:31:15;12.68;;;9.13;;
13698;SDS011;6921;53.642;9.956;2022-09-09T07:33:19;12.98;;;9.27;;
13698;SDS011;6921;53.642;9.956;2022-09-09T07:35:22;12.73;;;9.00;;
13698;SDS011;6921;53.642;9.956;2022-09-09T07:37:25;13.93;;;7.90;;
13698;SDS011;6921;53.642;9.956;2022-09-09T07:39:29;11.00;;;7.97;;
13698;SDS011;6921;53.642;9.956;2022-09-09T07:41:33;8.48;;;6.55;;
13698;SDS011;6921;53.642;9.956;2022-09-09T07:43:37;11.52;;;6.80;;
13698;SDS011;6921;53.642;9.956;2022-09-09T07:45:41;7.15;;;6.03;;
13698;SDS011;6921;53.642;9.956;2022-09-09T07:47:46;7.85;;;6.00;;
13698;SDS011;6921;53.642;9.956;2022-09-09T07:49:49;6.60;;;5.05;;
13698;SDS011;6921;53.642;9.956;2022-09-09T07:51:52;5.88;;;5.22;;
13698;SDS011;6921;53.642;9.956;2022-09-09T07:53:56;6.35;;;5.20;;
13698;SDS011;6921;53.642;9.956;2022-09-09T07:56:04;8.90;;;5.50;;
13698;SDS011;6921;53.642;9.956;2022-09-09T07:58:08;6.45;;;4.80;;
13698;SDS011;6921;53.642;9.956;2022-09-09T08:00:12;5.13;;;4.63;;
13698;SDS011;6921;53.642;9.956;2022-09-09T08:02:16;5.82;;;5.22;;
13698;SDS011;6921;53.642;9.956;2022-09-09T08:04:21;6.28;;;4.85;;
13698;SDS011;6921;53.642;9.956;2022-09-09T08:06:26;6.82;;;4.32;;
13698;SDS011;6921;53.642;9.956;2022-09-09T08:08:30;5.50;;;4.55;;
13698;SDS011;6921;53.642;9.956;2022-09-09T08:10:33;6.32;;;5.05;;
13698;SDS011;6921;53.642;9.956;2022-09-09T08:12:37;6.43;;;5.25;;
13698;SDS011;6921;53.642;9.956;2022-09-09T08:14:47;6.43;;;4.97;;
13698;SDS011;6921;53.642;9.956;2022-09-09T08:16:52;7.57;;;5.22;;
13698;SDS011;6921;53.642;9.956;2022-09-09T08:18:56;6.80;;;5.10;;
13698;SDS011;6921;53.642;9.956;2022-09-09T08:21:06;8.90;;;5.03;;
13698;SDS011;6921;53.642;9.956;2022-09-09T08:23:11;7.35;;;4.88;;
13698;SDS011;6921;53.642;9.956;2022-09-09T08:25:14;9.73;;;6.05;;
13698;SDS011;6921;53.642;9.956;2022-09-09T08:27:17;7.57;;;4.68;;
13698;SDS011;6921;53.642;9.956;2022-09-09T08:29:20;6.78;;;5.20;;
13698;SDS011;6921;53.642;9.956;2022-09-09T08:31:24;7.90;;;4.60;;
13698;SDS011;6921;53.642;9.956;2022-09-09T08:33:29;7.00;;;5.07;;
13698;SDS011;6921;53.642;9.956;2022-09-09T08:35:32;5.70;;;4.68;;
13698;SDS011;6921;53.642;9.956;2022-09-09T08:37:36;7.85;;;4.60;;
13698;SDS011;6921;53.642;9.956;2022-09-09T08:39:39;5.10;;;4.60;;
13698;SDS011;6921;53.642;9.956;2022-09-09T08:41:46;5.95;;;4.53;;
13698;SDS011;6921;53.642;9.956;2022-09-09T08:44:04;5.85;;;4.57;;
13698;SDS011;6921;53.642;9.956;2022-09-09T08:46:13;8.10;;;4.50;;
13698;SDS011;6921;53.642;9.956;2022-09-09T08:48:27;6.00;;;4.03;;
13698;SDS011;6921;53.642;9.956;2022-09-09T08:50:43;5.07;;;4.00;;
13698;SDS011;6921;53.642;9.956;2022-09-09T08:52:51;4.85;;;3.78;;
13698;SDS011;6921;53.642;9.956;2022-09-09T08:55:05;6.15;;;3.78;;
13698;SDS011;6921;53.642;9.956;2022-09-09T08:57:21;5.38;;;3.95;;
13698;SDS011;6921;53.642;9.956;2022-09-09T08:59:28;4.47;;;3.08;;
13698;SDS011;6921;53.642;9.956;2022-09-09T09:01:35;5.18;;;3.90;;
13698;SDS011;6921;53.642;9.956;2022-09-09T09:03:53;4.05;;;3.40;;
13698;SDS011;6921;53.642;9.956;2022-09-09T09:06:01;4.72;;;3.28;;
13698;SDS011;6921;53.642;9.956;2022-09-09T09:08:15;5.43;;;3.50;;
13698;SDS011;6921;53.642;9.956;2022-09-09T09:10:30;3.85;;;2.90;;
13698;SDS011;6921;53.642;9.956;2022-09-09T09:12:43;3.28;;;2.95;;
13698;SDS011;6921;53.642;9.956;2022-09-09T09:14:48;2.90;;;2.70;;
13698;SDS011;6921;53.642;9.956;2022-09-09T09:16:53;3.72;;;2.72;;
13698;SDS011;6921;53.642;9.956;2022-09-09T09:18:58;4.38;;;2.85;;
13698;SDS011;6921;53.642;9.956;2022-09-09T09:21:03;3.53;;;2.80;;
13698;SDS011;6921;53.642;9.956;2022-09-09T09:23:16;6.63;;;3.88;;
13698;SDS011;6921;53.642;9.956;2022-09-09T09:25:26;5.13;;;2.90;;
13698;SDS011;6921;53.642;9.956;2022-09-09T09:27:34;2.78;;;2.53;;
13698;SDS011;6921;53.642;9.956;2022-09-09T09:29:42;2.80;;;2.53;;
13698;SDS011;6921;53.642;9.956;2022-09-09T09:32:07;4.93;;;2.78;;
13698;SDS011;6921;53.642;9.956;2022-09-09T09:34:15;4.47;;;2.55;;
13698;SDS011;6921;53.642;9.956;2022-09-09T09:36:18;2.70;;;2.50;;
13698;SDS011;6921;53.642;9.956;2022-09-09T09:38:23;2.42;;;2.05;;
13698;SDS011;6921;53.642;9.956;2022-09-09T09:40:49;4.15;;;2.45;;
13698;SDS011;6921;53.642;9.956;2022-09-09T09:42:58;4.63;;;2.65;;
13698;SDS011;6921;53.642;9.956;2022-09-09T09:45:07;3.75;;;2.25;;
13698;SDS011;6921;53.642;9.956;2022-09-09T09:47:12;3.20;;;1.85;;
13698;SDS011;6921;53.642;9.956;2022-09-09T09:49:16;4.10;;;2.22;;
13698;SDS011;6921;53.642;9.956;2022-09-09T09:51:19;1.98;;;1.80;;
13698;SDS011;6921;53.642;9.956;2022-09-09T09:53:26;2.08;;;1.52;;
13698;SDS011;6921;53.642;9.956;2022-09-09T09:55:31;2.78;;;1.30;;
13698;SDS011;6921;53.642;9.956;2022-09-09T09:57:38;1.55;;;1.45;;
13698;SDS011;6921;53.642;9.956;2022-09-09T09:59:41;2.15;;;1.33;;
13698;SDS011;6921;53.642;9.956;2022-09-09T10:01:44;2.25;;;1.77;;
13698;SDS011;6921;53.642;9.956;2022-09-09T10:03:50;4.63;;;1.45;;
13698;SDS011;6921;53.642;9.956;2022-09-09T10:05:54;1.65;;;1.50;;
13698;SDS011;6921;53.642;9.956;2022-09-09T10:08:02;1.80;;;1.70;;
13698;SDS011;6921;53.642;9.956;2022-09-09T10:10:09;3.00;;;1.50;;
13698;SDS011;6921;53.642;9.956;2022-09-09T10:12:19;2.20;;;1.83;;
13698;SDS011;6921;53.642;9.956;2022-09-09T10:14:34;3.28;;;2.22;;
13698;SDS011;6921;53.642;9.956;2022-09-09T10:16:47;2.10;;;1.90;;
13698;SDS011;6921;53.642;9.956;2022-09-09T10:19:02;2.00;;;1.70;;
13698;SDS011;6921;53.642;9.956;2022-09-09T10:21:11;2.65;;;1.55;;
13698;SDS011;6921;53.642;9.956;2022-09-09T10:23:27;3.88;;;1.52;;
13698;SDS011;6921;53.642;9.956;2022-09-09T10:25:55;1.60;;;1.40;;
13698;SDS011;6921;53.642;9.956;2022-09-09T10:28:20;3.42;;;1.83;;
13698;SDS011;6921;53.642;9.956;2022-09-09T10:30:31;2.15;;;1.38;;
13698;SDS011;6921;53.642;9.956;2022-09-09T10:32:46;2.20;;;1.58;;
13698;SDS011;6921;53.642;9.956;2022-09-09T10:34:56;2.13;;;1.52;;
13698;SDS011;6921;53.642;9.956;2022-09-09T10:37:06;4.68;;;1.70;;
13698;SDS011;6921;53.642;9.956;2022-09-09T10:39:29;3.90;;;1.40;;
13698;SDS011;6921;53.642;9.956;2022-09-09T10:41:42;2.38;;;1.30;;
13698;SDS011;6921;53.642;9.956;2022-09-09T10:43:59;1.50;;;1.25;;
13698;SDS011;6921;53.642;9.956;2022-09-09T10:46:18;2.80;;;1.27;;
13698;SDS011;6921;53.642;9.956;2022-09-09T10:48:31;1.90;;;1.30;;
13698;SDS011;6921;53.642;9.956;2022-09-09T10:50:45;3.28;;;1.33;;
13698;SDS011;6921;53.642;9.956;2022-09-09T10:53:02;1.35;;;1.10;;
13698;SDS011;6921;53.642;9.956;2022-09-09T10:55:16;3.10;;;1.17;;
13698;SDS011;6921;53.642;9.956;2022-09-09T10:57:28;2.20;;;1.15;;
13698;SDS011;6921;53.642;9.956;2022-09-09T10:59:36;1.63;;;1.10;;
13698;SDS011;6921;53.642;9.956;2022-09-09T11:01:44;4.70;;;1.42;;
13698;SDS011;6921;53.642;9.956;2022-09-09T11:03:52;1.33;;;1.20;;
13698;SDS011;6921;53.642;9.956;2022-09-09T11:05:59;4.32;;;1.67;;
13698;SDS011;6921;53.642;9.956;2022-09-09T11:08:09;1.45;;;1.20;;
13698;SDS011;6921;53.642;9.956;2022-09-09T11:10:19;2.88;;;1.52;;
13698;SDS011;6921;53.642;9.956;2022-09-09T11:12:28;2.45;;;1.50;;
13698;SDS011;6921;53.642;9.956;2022-09-09T11:14:34;3.70;;;1.60;;
13698;SDS011;6921;53.642;9.956;2022-09-09T11:16:45;2.08;;;1.80;;
13698;SDS011;6921;53.642;9.956;2022-09-09T11:18:50;2.55;;;1.50;;
13698;SDS011;6921;53.642;9.956;2022-09-09T11:21:03;2.80;;;1.77;;
13698;SDS011;6921;53.642;9.956;2022-09-09T11:23:13;1.48;;;1.30;;
13698;SDS011;6921;53.642;9.956;2022-09-09T11:25:19;1.73;;;1.63;;
13698;SDS011;6921;53.642;9.956;2022-09-09T11:27:26;1.90;;;1.50;;
13698;SDS011;6921;53.642;9.956;2022-09-09T11:29:44;3.10;;;1.77;;
13698;SDS011;6921;53.642;9.956;2022-09-09T11:32:22;3.50;;;1.50;;
13698;SDS011;6921;53.642;9.956;2022-09-09T11:34:50;2.03;;;1.02;;
13698;SDS011;6921;53.642;9.956;2022-09-09T11:37:06;3.33;;;1.40;;
13698;SDS011;6921;53.642;9.956;2022-09-09T11:39:30;2.28;;;1.42;;
13698;SDS011;6921;53.642;9.956;2022-09-09T11:41:46;1.92;;;1.30;;
13698;SDS011;6921;53.642;9.956;2022-09-09T11:43:51;2.95;;;1.15;;
13698;SDS011;6921;53.642;9.956;2022-09-09T11:45:55;1.92;;;1.27;;
13698;SDS011;6921;53.642;9.956;2022-09-09T11:48:02;2.83;;;1.05;;
13698;SDS011;6921;53.642;9.956;2022-09-09T11:50:08;2.25;;;1.48;;
13698;SDS011;6921;53.642;9.956;2022-09-09T11:52:18;2.33;;;1.48;;
13698;SDS011;6921;53.642;9.956;2022-09-09T11:54:27;2.65;;;1.50;;
13698;SDS011;6921;53.642;9.956;2022-09-09T11:56:32;3.05;;;1.20;;
13698;SDS011;6921;53.642;9.956;2022-09-09T11:58:53;4.28;;;1.20;;
13698;SDS011;6921;53.642;9.956;2022-09-09T12:00:59;1.60;;;1.50;;
13698;SDS011;6921;53.642;9.956;2022-09-09T12:03:03;2.75;;;1.10;;
13698;SDS011;6921;53.642;9.956;2022-09-09T12:05:07;3.40;;;1.52;;
13698;SDS011;6921;53.642;9.956;2022-09-09T12:07:25;3.03;;;1.30;;
13698;SDS011;6921;53.642;9.956;2022-09-09T12:09:43;1.48;;;1.13;;
13698;SDS011;6921;53.642;9.956;2022-09-09T12:11:49;1.80;;;1.23;;
13698;SDS011;6921;53.642;9.956;2022-09-09T12:13:53;2.30;;;1.27;;
13698;SDS011;6921;53.642;9.956;2022-09-09T12:15:58;2.75;;;1.40;;
13698;SDS011;6921;53.642;9.956;2022-09-09T12:18:03;2.38;;;1.20;;
13698;SDS011;6921;53.642;9.956;2022-09-09T12:20:18;3.25;;;1.52;;
13698;SDS011;6921;53.642;9.956;2022-09-09T12:22:24;2.78;;;1.85;;
13698;SDS011;6921;53.642;9.956;2022-09-09T12:24:39;3.10;;;1.70;;
13698;SDS011;6921;53.642;9.956;2022-09-09T12:26:47;2.85;;;1.73;;
13698;SDS011;6921;53.642;9.956;2022-09-09T12:28:58;3.60;;;1.50;;
13698;SDS011;6921;53.642;9.956;2022-09-09T12:31:10;2.83;;;1.55;;
13698;SDS011;6921;53.642;9.956;2022-09-09T12:33:19;3.50;;;1.85;;
13698;SDS011;6921;53.642;9.956;2022-09-09T12:35:24;2.35;;;1.80;;
13698;SDS011;6921;53.642;9.956;2022-09-09T12:37:32;2.50;;;1.48;;
13698;SDS011;6921;53.642;9.956;2022-09-09T12:39:38;2.90;;;1.65;;
13698;SDS011;6921;53.642;9.956;2022-09-09T12:41:53;2.67;;;1.58;;
13698;SDS011;6921;53.642;9.956;2022-09-09T12:44:04;4.38;;;1.90;;
13698;SDS011;6921;53.642;9.956;2022-09-09T12:46:12;2.20;;;1.50;;